Time;durP1;ratioP1;P1;durP2;ratioP2;P2;SDS_P1;SDS_P2;PMS_P1;PMS_P2;Temp;Humidity;BMP_temperature;BMP_pressure;BME280_temperature;BME280_humidity;BME280_pressure;Samples;Min_cycle;Max_cycle;Signal;HPM_P1;HPM_P2
2023/12/14 00:01:21;;;;;;;19.17;9.53;;;;;;;;;;6093848;23;20661;-91
2023/12/14 00:04:30;;;;;;;20.53;8.43;;;;;;;;;;6094105;23;20166;-90
2023/12/14 00:07:35;;;;;;;18.93;8.60;;;;;;;;;;6095699;23;20153;-92
2023/12/14 00:10:41;;;;;;;16.77;8.87;;;;;;;;;;6096980;23;20173;-89
2023/12/14 00:13:46;;;;;;;20.37;8.87;;;;;;;;;;6096432;23;20174;-92
2023/12/14 00:16:52;;;;;;;17.20;9.40;;;;;;;;;;6095829;23;20201;-91
2023/12/14 00:20:00;;;;;;;20.83;8.77;;;;;;;;;;6095530;23;20149;-89
2023/12/14 00:23:06;;;;;;;21.10;9.43;;;;;;;;;;6095120;23;20215;-91
2023/12/14 00:26:12;;;;;;;17.60;9.73;;;;;;;;;;6095436;23;20182;-89
2023/12/14 00:29:17;;;;;;;18.63;9.77;;;;;;;;;;6095600;23;20178;-89
2023/12/14 00:32:23;;;;;;;18.20;9.17;;;;;;;;;;6094656;23;20178;-92
2023/12/14 00:35:29;;;;;;;17.80;8.93;;;;;;;;;;6094615;23;20215;-91
2023/12/14 00:38:35;;;;;;;15.77;8.97;;;;;;;;;;6093719;23;20173;-92
2023/12/14 00:41:40;;;;;;;19.33;8.87;;;;;;;;;;6097646;23;20251;-89
2023/12/14 00:44:46;;;;;;;18.33;9.80;;;;;;;;;;6094509;23;20153;-91
2023/12/14 00:47:52;;;;;;;18.27;8.57;;;;;;;;;;6095938;23;20178;-90
2023/12/14 00:50:59;;;;;;;15.63;8.27;;;;;;;;;;6096366;23;20162;-89
2023/12/14 00:54:08;;;;;;;21.77;9.20;;;;;;;;;;6096014;23;20190;-91
2023/12/14 00:57:14;;;;;;;21.00;9.80;;;;;;;;;;6095813;23;20695;-90
2023/12/14 01:00:22;;;;;;;17.13;8.97;;;;;;;;;;6096698;23;20174;-92
2023/12/14 01:03:27;;;;;;;19.90;9.97;;;;;;;;;;6096645;23;20169;-90
2023/12/14 01:06:35;;;;;;;20.73;9.70;;;;;;;;;;6080253;23;20169;-89
2023/12/14 01:09:40;;;;;;;20.40;9.53;;;;;;;;;;6096599;23;20178;-91
2023/12/14 01:12:45;;;;;;;17.93;8.57;;;;;;;;;;6097337;23;20182;-91
2023/12/14 01:15:51;;;;;;;17.53;9.13;;;;;;;;;;6097658;23;20197;-90
2023/12/14 01:18:58;;;;;;;14.20;8.03;;;;;;;;;;6098946;23;20503;-94
2023/12/14 01:22:05;;;;;;;19.60;9.03;;;;;;;;;;6097688;23;20228;-90
2023/12/14 01:25:10;;;;;;;18.07;9.03;;;;;;;;;;6096756;23;20185;-92
2023/12/14 01:28:16;;;;;;;17.07;8.60;;;;;;;;;;6099494;23;20174;-90
2023/12/14 01:31:23;;;;;;;16.80;8.63;;;;;;;;;;6097348;23;20170;-91
2023/12/14 01:34:28;;;;;;;17.07;8.27;;;;;;;;;;6097809;23;20173;-90
2023/12/14 01:37:36;;;;;;;17.93;8.77;;;;;;;;;;6098844;23;20213;-92
2023/12/14 01:40:41;;;;;;;17.57;8.83;;;;;;;;;;6101714;23;20505;-92
2023/12/14 01:43:50;;;;;;;17.70;9.13;;;;;;;;;;6113314;23;20213;-91
2023/12/14 01:46:55;;;;;;;17.43;9.23;;;;;;;;;;6095293;23;20174;-90
2023/12/14 01:50:00;;;;;;;15.93;8.23;;;;;;;;;;6095452;23;20166;-89
2023/12/14 01:53:07;;;;;;;16.63;8.70;;;;;;;;;;6096097;23;20561;-90
2023/12/14 01:56:12;;;;;;;19.30;8.43;;;;;;;;;;6095316;23;20198;-90
2023/12/14 01:59:17;;;;;;;15.10;7.87;;;;;;;;;;6094744;23;20176;-92
2023/12/14 02:02:22;;;;;;;15.53;7.90;;;;;;;;;;6095572;23;20192;-91
2023/12/14 02:05:28;;;;;;;16.60;8.27;;;;;;;;;;6080622;23;20161;-92
2023/12/14 02:08:38;;;;;;;14.30;7.27;;;;;;;;;;6095823;23;20185;-91
2023/12/14 02:11:43;;;;;;;15.83;7.73;;;;;;;;;;6096402;23;20174;-90
2023/12/14 02:14:50;;;;;;;15.13;7.53;;;;;;;;;;6093678;23;20178;-93
2023/12/14 02:17:55;;;;;;;12.10;7.33;;;;;;;;;;6094460;23;20193;-90
2023/12/14 02:21:00;;;;;;;13.33;7.53;;;;;;;;;;6093531;23;20174;-93
2023/12/14 02:24:07;;;;;;;15.83;7.23;;;;;;;;;;6095270;23;20189;-90
2023/12/14 02:27:12;;;;;;;13.30;7.10;;;;;;;;;;6096294;23;20477;-89
2023/12/14 02:30:18;;;;;;;13.43;7.17;;;;;;;;;;6096345;23;20198;-95
2023/12/14 02:33:23;;;;;;;14.60;7.13;;;;;;;;;;6094776;23;20178;-91
2023/12/14 02:36:28;;;;;;;12.83;6.97;;;;;;;;;;6095511;23;20197;-88
2023/12/14 02:39:35;;;;;;;15.10;7.33;;;;;;;;;;6094196;23;20178;-92
2023/12/14 02:42:40;;;;;;;14.97;7.80;;;;;;;;;;6095371;23;20198;-90
2023/12/14 02:45:47;;;;;;;13.20;6.80;;;;;;;;;;6096265;23;20634;-89
2023/12/14 02:48:52;;;;;;;12.03;6.50;;;;;;;;;;6097544;23;20174;-91
2023/12/14 02:51:57;;;;;;;12.03;6.47;;;;;;;;;;6094111;23;20508;-90
2023/12/14 02:55:04;;;;;;;13.53;6.87;;;;;;;;;;6094945;23;20173;-92
2023/12/14 02:58:09;;;;;;;12.07;6.60;;;;;;;;;;6095986;23;20238;-93
2023/12/14 03:01:15;;;;;;;12.83;6.53;;;;;;;;;;6097817;23;20189;-89
2023/12/14 03:04:20;;;;;;;12.03;6.90;;;;;;;;;;6096853;23;20170;-89
2023/12/14 03:07:25;;;;;;;14.87;6.97;;;;;;;;;;6096289;23;20245;-91
2023/12/14 03:10:32;;;;;;;11.23;6.50;;;;;;;;;;6096995;23;20158;-90
2023/12/14 03:13:38;;;;;;;13.20;7.07;;;;;;;;;;6097413;23;20499;-91
2023/12/14 03:16:43;;;;;;;15.40;7.57;;;;;;;;;;6096895;23;20242;-89
2023/12/14 03:19:48;;;;;;;13.10;6.93;;;;;;;;;;6098398;23;20166;-90
2023/12/14 03:22:53;;;;;;;10.83;6.10;;;;;;;;;;6097910;23;20169;-92
2023/12/14 03:26:01;;;;;;;10.90;6.50;;;;;;;;;;6097359;23;20161;-92
2023/12/14 03:29:07;;;;;;;10.73;5.67;;;;;;;;;;6096660;23;20170;-89
2023/12/14 03:32:12;;;;;;;11.77;6.80;;;;;;;;;;6095502;23;20226;-90
2023/12/14 03:35:18;;;;;;;10.53;6.00;;;;;;;;;;6095485;23;20158;-90
2023/12/14 03:38:24;;;;;;;12.13;6.70;;;;;;;;;;6098037;23;20217;-91
2023/12/14 03:41:30;;;;;;;11.30;6.43;;;;;;;;;;6095157;23;20266;-90
2023/12/14 03:44:35;;;;;;;14.10;7.13;;;;;;;;;;6093107;23;20579;-91
2023/12/14 03:47:40;;;;;;;11.73;6.43;;;;;;;;;;6093974;23;20267;-90
2023/12/14 03:50:45;;;;;;;15.03;6.77;;;;;;;;;;6092780;23;20170;-92
2023/12/14 03:53:51;;;;;;;13.53;6.60;;;;;;;;;;6095408;23;20153;-92
2023/12/14 03:56:58;;;;;;;12.40;6.60;;;;;;;;;;6096396;23;20197;-89
2023/12/14 04:00:03;;;;;;;12.77;6.43;;;;;;;;;;6097028;23;20552;-90
2023/12/14 04:03:10;;;;;;;10.57;6.70;;;;;;;;;;6116172;23;20290;-90
2023/12/14 04:06:15;;;;;;;15.20;6.57;;;;;;;;;;6097174;23;20170;-92
2023/12/14 04:09:21;;;;;;;13.07;6.73;;;;;;;;;;6096401;23;20149;-92
2023/12/14 04:12:27;;;;;;;14.03;6.90;;;;;;;;;;6097165;23;20170;-89
2023/12/14 04:15:33;;;;;;;12.23;6.67;;;;;;;;;;6097866;23;20226;-91
2023/12/14 04:18:39;;;;;;;13.03;6.57;;;;;;;;;;6096799;23;20231;-91
2023/12/14 04:21:44;;;;;;;12.80;6.93;;;;;;;;;;6095617;23;20262;-91
2023/12/14 04:24:49;;;;;;;16.33;7.50;;;;;;;;;;6096137;23;20157;-93
2023/12/14 04:27:57;;;;;;;11.70;6.70;;;;;;;;;;6094157;23;20169;-91
2023/12/14 04:31:02;;;;;;;12.80;6.63;;;;;;;;;;6096209;23;20170;-92
2023/12/14 04:34:11;;;;;;;13.27;7.73;;;;;;;;;;6096907;23;20173;-92
2023/12/14 04:37:17;;;;;;;15.60;8.27;;;;;;;;;;6094845;23;20189;-90
2023/12/14 04:40:23;;;;;;;14.50;7.97;;;;;;;;;;6098345;23;20150;-90
2023/12/14 04:43:32;;;;;;;16.73;7.57;;;;;;;;;;6094888;23;20170;-90
2023/12/14 04:46:37;;;;;;;13.70;7.37;;;;;;;;;;6094390;23;20254;-89
2023/12/14 04:49:42;;;;;;;15.33;8.03;;;;;;;;;;6094895;23;20198;-90
2023/12/14 04:52:48;;;;;;;15.63;8.63;;;;;;;;;;6093787;23;20219;-93
2023/12/14 04:55:53;;;;;;;15.10;7.30;;;;;;;;;;6095064;23;20166;-92
2023/12/14 04:58:59;;;;;;;16.20;7.73;;;;;;;;;;6094355;23;20168;-93
2023/12/14 05:02:06;;;;;;;16.03;8.10;;;;;;;;;;6092861;23;20189;-92
2023/12/14 05:05:12;;;;;;;17.70;7.83;;;;;;;;;;6091295;23;20642;-88
2023/12/14 05:08:17;;;;;;;15.07;8.43;;;;;;;;;;6092670;23;20238;-92
2023/12/14 05:11:23;;;;;;;17.33;8.10;;;;;;;;;;6094444;23;20239;-90
2023/12/14 05:14:31;;;;;;;17.10;8.53;;;;;;;;;;6093458;23;20165;-91
2023/12/14 05:17:38;;;;;;;17.17;8.57;;;;;;;;;;6097720;23;20198;-89
2023/12/14 05:20:45;;;;;;;18.13;8.13;;;;;;;;;;6095898;23;20170;-91
2023/12/14 05:23:51;;;;;;;13.40;7.00;;;;;;;;;;6094477;23;20174;-90
2023/12/14 05:26:56;;;;;;;16.30;8.07;;;;;;;;;;6095203;23;20165;-93
2023/12/14 05:30:03;;;;;;;16.67;8.23;;;;;;;;;;6093993;23;20618;-91
2023/12/14 05:33:09;;;;;;;15.93;9.80;;;;;;;;;;6093119;23;20166;-90
2023/12/14 05:36:14;;;;;;;16.90;8.53;;;;;;;;;;6093641;23;20683;-89
2023/12/14 05:39:19;;;;;;;12.77;7.17;;;;;;;;;;6099443;23;20181;-89
2023/12/14 05:42:26;;;;;;;14.77;7.87;;;;;;;;;;6082508;23;20170;-92
2023/12/14 05:45:33;;;;;;;17.20;7.83;;;;;;;;;;6097864;23;20162;-92
2023/12/14 05:48:39;;;;;;;13.80;7.20;;;;;;;;;;6095656;23;20200;-92
2023/12/14 05:51:44;;;;;;;15.77;7.80;;;;;;;;;;6096491;23;20228;-88
2023/12/14 05:54:52;;;;;;;16.60;8.20;;;;;;;;;;6097974;23;20158;-92
2023/12/14 05:58:00;;;;;;;18.20;8.33;;;;;;;;;;6096153;23;20186;-90
2023/12/14 06:01:08;;;;;;;16.57;9.03;;;;;;;;;;6098175;23;20190;-92
2023/12/14 06:04:13;;;;;;;13.77;7.57;;;;;;;;;;6097498;23;20190;-92
2023/12/14 06:07:19;;;;;;;23.20;8.30;;;;;;;;;;6097115;23;20170;-90
2023/12/14 06:10:25;;;;;;;18.47;8.13;;;;;;;;;;6097217;23;20161;-89
2023/12/14 06:13:37;;;;;;;14.87;8.57;;;;;;;;;;6101516;23;20158;-89
2023/12/14 06:16:49;;;;;;;17.27;9.07;;;;;;;;;;6102491;23;20178;-91
2023/12/14 06:20:01;;;;;;;13.73;8.00;;;;;;;;;;6100695;23;20199;-89
2023/12/14 06:23:06;;;;;;;17.47;7.63;;;;;;;;;;6101123;23;20173;-88
2023/12/14 06:26:13;;;;;;;15.70;7.70;;;;;;;;;;6099793;23;20544;-91
2023/12/14 06:29:20;;;;;;;16.97;8.23;;;;;;;;;;6099180;23;20179;-90
2023/12/14 06:32:27;;;;;;;17.50;6.80;;;;;;;;;;6098124;23;20170;-89
2023/12/14 06:35:34;;;;;;;11.57;6.53;;;;;;;;;;6098846;23;20174;-89
2023/12/14 06:38:40;;;;;;;14.10;7.23;;;;;;;;;;6100668;23;20247;-91
2023/12/14 06:41:47;;;;;;;11.13;5.90;;;;;;;;;;6103246;23;20281;-91
2023/12/14 06:45:02;;;;;;;14.43;6.60;;;;;;;;;;6101627;23;20170;-90
2023/12/14 06:48:12;;;;;;;11.93;6.40;;;;;;;;;;6101518;23;20178;-92
2023/12/14 06:51:18;;;;;;;13.37;6.10;;;;;;;;;;6098695;23;20170;-90
2023/12/14 06:54:23;;;;;;;16.27;7.13;;;;;;;;;;6096977;23;20282;-91
2023/12/14 06:57:29;;;;;;;14.17;7.17;;;;;;;;;;6097858;23;20217;-91
2023/12/14 07:00:33;;;;;;;13.00;6.23;;;;;;;;;;6098017;23;20554;-91
2023/12/14 07:03:44;;;;;;;13.27;6.50;;;;;;;;;;6099727;23;20192;-89
2023/12/14 07:06:53;;;;;;;14.23;6.17;;;;;;;;;;6097310;23;20234;-90
2023/12/14 07:10:01;;;;;;;14.30;6.70;;;;;;;;;;6093793;23;20181;-88
2023/12/14 07:13:09;;;;;;;17.17;7.67;;;;;;;;;;6094689;23;20166;-91
2023/12/14 07:16:14;;;;;;;17.57;7.93;;;;;;;;;;6093874;23;20178;-93
2023/12/14 07:19:21;;;;;;;14.70;8.13;;;;;;;;;;6092973;23;20197;-88
2023/12/14 07:22:26;;;;;;;17.13;8.77;;;;;;;;;;6094602;23;20174;-91
2023/12/14 07:25:35;;;;;;;13.20;7.20;;;;;;;;;;6094497;23;20170;-90
2023/12/14 07:28:40;;;;;;;18.10;9.40;;;;;;;;;;6095808;23;20210;-91
2023/12/14 07:31:49;;;;;;;14.70;7.90;;;;;;;;;;6098886;23;20222;-91
2023/12/14 07:34:55;;;;;;;17.73;7.83;;;;;;;;;;6095609;23;20178;-89
2023/12/14 09:00:26;;;;;;;24.17;11.38;;;;;;;;;;6014992;23;20219;-89
2023/12/14 09:48:19;;;;;;;20.58;10.52;;;;;;;;;;6055155;23;20183;-91
2023/12/14 09:51:26;;;;;;;22.45;9.85;;;;;;;;;;6022920;23;20357;-89
2023/12/14 09:54:31;;;;;;;21.02;9.77;;;;;;;;;;6037753;23;20155;-89
2023/12/14 09:57:37;;;;;;;22.95;10.05;;;;;;;;;;6054652;23;20193;-91
2023/12/14 10:00:43;;;;;;;25.33;11.35;;;;;;;;;;6038038;23;20170;-92
2023/12/14 10:03:50;;;;;;;21.02;9.88;;;;;;;;;;6039376;23;20167;-90
2023/12/14 10:06:57;;;;;;;17.35;9.55;;;;;;;;;;6054229;23;20230;-90
2023/12/14 10:10:13;;;;;;;20.95;10.07;;;;;;;;;;6036478;23;20512;-91
2023/12/14 10:13:18;;;;;;;19.48;9.65;;;;;;;;;;6037605;23;20179;-89
2023/12/14 10:16:33;;;;;;;23.17;10.75;;;;;;;;;;6038754;23;20212;-90
2023/12/14 10:19:43;;;;;;;19.55;9.05;;;;;;;;;;6054083;23;20204;-88
2023/12/14 10:22:49;;;;;;;20.40;9.35;;;;;;;;;;6054672;23;20224;-93
2023/12/14 10:25:55;;;;;;;20.38;10.00;;;;;;;;;;6053309;23;20193;-89
2023/12/14 10:29:04;;;;;;;16.15;9.23;;;;;;;;;;6054519;23;20173;-88
2023/12/14 10:32:11;;;;;;;18.52;9.90;;;;;;;;;;6039873;23;20179;-91
2023/12/14 10:35:21;;;;;;;19.90;8.88;;;;;;;;;;6040579;23;20255;-91
2023/12/14 10:38:28;;;;;;;17.60;9.23;;;;;;;;;;6037814;23;20199;-90
2023/12/14 10:41:35;;;;;;;17.85;8.98;;;;;;;;;;6039755;23;20179;-91
2023/12/14 10:44:40;;;;;;;17.55;9.27;;;;;;;;;;6053548;23;20188;-90
2023/12/14 10:47:46;;;;;;;18.55;9.40;;;;;;;;;;6008912;23;20164;-93
2023/12/14 10:50:55;;;;;;;22.27;10.35;;;;;;;;;;6026720;23;20176;-91
2023/12/14 10:54:01;;;;;;;22.52;9.23;;;;;;;;;;6009103;23;20172;-90
2023/12/14 10:57:10;;;;;;;21.33;9.98;;;;;;;;;;6030103;23;20248;-94
2023/12/14 11:00:17;;;;;;;20.13;9.18;;;;;;;;;;6026514;23;20200;-91
2023/12/14 11:03:23;;;;;;;20.13;9.98;;;;;;;;;;6025362;23;20310;-90
2023/12/14 11:06:48;;;;;;;21.77;9.57;;;;;;;;;;6011889;23;20180;-90
2023/12/14 11:09:54;;;;;;;19.50;8.52;;;;;;;;;;6026553;23;20225;-91
2023/12/14 11:13:02;;;;;;;21.20;8.80;;;;;;;;;;6025549;23;20179;-90
2023/12/14 11:16:08;;;;;;;20.02;8.63;;;;;;;;;;6008202;23;20171;-90
2023/12/14 11:19:26;;;;;;;15.60;8.15;;;;;;;;;;6029580;23;20200;-93
2023/12/14 11:22:35;;;;;;;19.38;9.40;;;;;;;;;;6025187;23;20183;-89
2023/12/14 11:25:40;;;;;;;20.83;9.88;;;;;;;;;;6027006;23;20180;-92
2023/12/14 11:28:46;;;;;;;24.50;9.10;;;;;;;;;;6027627;23;20282;-88
2023/12/14 11:31:51;;;;;;;19.05;8.98;;;;;;;;;;6025125;23;20603;-90
2023/12/14 11:34:58;;;;;;;15.55;8.65;;;;;;;;;;6025266;23;20168;-90
2023/12/14 11:38:10;;;;;;;19.92;9.05;;;;;;;;;;6026638;23;20172;-90
2023/12/14 11:41:15;;;;;;;21.30;9.35;;;;;;;;;;6026420;23;20226;-93
2023/12/14 11:44:24;;;;;;;22.55;9.63;;;;;;;;;;6024423;23;20175;-90
2023/12/14 11:47:29;;;;;;;20.60;10.00;;;;;;;;;;6007703;23;20164;-92
2023/12/14 11:50:41;;;;;;;26.85;11.25;;;;;;;;;;6009189;23;20217;-91
2023/12/14 11:53:48;;;;;;;21.58;10.43;;;;;;;;;;6011065;23;20156;-90
2023/12/14 11:56:55;;;;;;;17.52;9.00;;;;;;;;;;6011744;23;20173;-92
2023/12/14 12:00:01;;;;;;;19.95;9.48;;;;;;;;;;6027912;23;20199;-90
2023/12/14 12:03:11;;;;;;;24.80;9.25;;;;;;;;;;6029036;23;20175;-90
2023/12/14 12:06:23;;;;;;;20.38;9.52;;;;;;;;;;6028969;23;20171;-91
2023/12/14 12:09:39;;;;;;;19.85;9.82;;;;;;;;;;6028826;23;20210;-89
2023/12/14 12:12:44;;;;;;;26.55;9.45;;;;;;;;;;6027993;23;20272;-91
2023/12/14 12:15:50;;;;;;;22.15;10.20;;;;;;;;;;6026503;23;20169;-91
2023/12/14 12:18:59;;;;;;;22.15;10.32;;;;;;;;;;6010239;23;20215;-91
2023/12/14 12:22:10;;;;;;;18.45;9.57;;;;;;;;;;6013034;23;20157;-92
2023/12/14 16:46:22;;;;;;;9.77;5.00;;;;;;;;;;6067543;23;20207;-90
2023/12/14 16:49:28;;;;;;;9.45;4.80;;;;;;;;;;6066475;23;20219;-91
2023/12/14 16:52:35;;;;;;;10.95;4.28;;;;;;;;;;6067509;23;20150;-91
2023/12/14 16:55:43;;;;;;;11.18;4.65;;;;;;;;;;6066448;23;20174;-89
2023/12/14 16:58:51;;;;;;;20.25;8.27;;;;;;;;;;6068853;23;20198;-88
2023/12/14 17:02:02;;;;;;;13.80;5.65;;;;;;;;;;6069166;23;20175;-88
2023/12/14 17:05:12;;;;;;;11.75;5.22;;;;;;;;;;6070663;23;20510;-92
2023/12/14 17:11:44;;;;;;;12.60;5.90;;;;;;;;;;6071063;23;20267;-91
2023/12/14 17:14:53;;;;;;;12.85;6.65;;;;;;;;;;6089244;23;20173;-91
2023/12/14 17:18:01;;;;;;;16.17;6.57;;;;;;;;;;6070457;23;20174;-93
2023/12/14 17:21:19;;;;;;;12.90;6.40;;;;;;;;;;6069761;23;20505;-91
2023/12/14 17:24:25;;;;;;;13.05;5.97;;;;;;;;;;6069825;23;20175;-90
2023/12/14 17:27:34;;;;;;;11.82;6.28;;;;;;;;;;6067225;23;20204;-90
2023/12/14 17:30:42;;;;;;;14.27;6.40;;;;;;;;;;6064697;23;20203;-91
2023/12/14 17:33:55;;;;;;;14.77;8.02;;;;;;;;;;6067705;23;20240;-93
2023/12/14 17:37:26;;;;;;;22.40;10.32;;;;;;;;;;6068149;23;20267;-90
2023/12/14 17:40:36;;;;;;;16.50;7.93;;;;;;;;;;6067722;23;20198;-90
2023/12/14 17:43:45;;;;;;;11.50;6.45;;;;;;;;;;6069806;23;20158;-93
2023/12/14 17:46:53;;;;;;;18.58;9.30;;;;;;;;;;6070957;23;20171;-92
2023/12/14 17:50:08;;;;;;;15.73;8.32;;;;;;;;;;6069405;23;20162;-90
2023/12/14 17:53:16;;;;;;;15.45;7.55;;;;;;;;;;6072082;23;20223;-91
2023/12/14 17:56:24;;;;;;;16.35;8.93;;;;;;;;;;6070802;23;20606;-92
2023/12/14 18:02:52;;;;;;;27.67;13.90;;;;;;;;;;6070624;23;20166;-92
2023/12/14 18:06:24;;;;;;;24.48;11.52;;;;;;;;;;6068427;23;20258;-90
2023/12/14 18:09:34;;;;;;;19.92;10.13;;;;;;;;;;6069565;23;20223;-94
2023/12/14 18:12:40;;;;;;;17.85;9.65;;;;;;;;;;6066265;23;20158;-93
2023/12/14 18:15:49;;;;;;;20.33;8.80;;;;;;;;;;6069143;23;20186;-91
2023/12/14 18:18:56;;;;;;;25.95;13.95;;;;;;;;;;6070745;23;20197;-92
2023/12/14 18:22:02;;;;;;;19.67;9.20;;;;;;;;;;6070283;23;20178;-91
2023/12/14 18:25:33;;;;;;;21.05;8.30;;;;;;;;;;6072175;23;20161;-91
2023/12/14 18:28:44;;;;;;;14.93;8.45;;;;;;;;;;6071875;23;20170;-90
2023/12/14 18:31:53;;;;;;;17.92;8.43;;;;;;;;;;6068947;23;20184;-91
2023/12/14 18:35:01;;;;;;;25.95;9.93;;;;;;;;;;6071849;23;20222;-92
2023/12/14 18:38:09;;;;;;;35.50;14.50;;;;;;;;;;6068823;23;20171;-90
2023/12/14 18:41:17;;;;;;;22.45;10.55;;;;;;;;;;6070468;23;20234;-90
2023/12/14 18:44:45;;;;;;;19.15;9.52;;;;;;;;;;6075273;23;20247;-93
2023/12/14 18:47:53;;;;;;;27.05;12.60;;;;;;;;;;6100918;23;20197;-91
2023/12/14 18:51:04;;;;;;;21.80;10.90;;;;;;;;;;6099406;23;20215;-89
2023/12/14 18:54:11;;;;;;;21.10;11.13;;;;;;;;;;6117075;23;20230;-89
2023/12/14 18:57:19;;;;;;;24.33;10.65;;;;;;;;;;6097792;23;20193;-91
2023/12/14 19:00:49;;;;;;;24.33;11.93;;;;;;;;;;6099183;23;20256;-91
2023/12/14 19:04:00;;;;;;;27.90;13.20;;;;;;;;;;6097934;23;20231;-91
2023/12/14 19:07:09;;;;;;;25.73;11.27;;;;;;;;;;6097875;23;20220;-90
2023/12/14 19:13:51;;;;;;;29.48;13.70;;;;;;;;;;6100272;23;20183;-90
2023/12/14 19:17:00;;;;;;;23.80;11.93;;;;;;;;;;6098136;23;20177;-90
2023/12/14 19:20:11;;;;;;;26.35;11.32;;;;;;;;;;6097888;23;20210;-90
2023/12/14 19:23:19;;;;;;;27.52;12.15;;;;;;;;;;6099360;23;20265;-91
2023/12/14 19:26:31;;;;;;;24.60;12.18;;;;;;;;;;6100236;23;20173;-92
2023/12/14 19:29:40;;;;;;;26.75;13.27;;;;;;;;;;6100756;23;20194;-91
2023/12/14 19:32:54;;;;;;;23.83;11.03;;;;;;;;;;6098996;23;20154;-91
2023/12/14 19:36:11;;;;;;;19.27;10.02;;;;;;;;;;6099233;23;20210;-90
2023/12/14 19:39:19;;;;;;;16.97;8.83;;;;;;;;;;6099113;23;20273;-95
2023/12/14 19:42:27;;;;;;;17.80;9.50;;;;;;;;;;6098466;23;20190;-91
2023/12/14 19:45:36;;;;;;;16.63;9.10;;;;;;;;;;6099512;23;20177;-90
2023/12/14 19:48:43;;;;;;;15.82;8.77;;;;;;;;;;6096814;23;20170;-90
2023/12/14 19:51:53;;;;;;;25.80;10.68;;;;;;;;;;6096347;23;20218;-91
2023/12/14 19:55:02;;;;;;;22.20;10.32;;;;;;;;;;6096124;23;20226;-94
2023/12/14 19:58:07;;;;;;;23.38;10.30;;;;;;;;;;6095959;23;20242;-91
2023/12/14 20:01:18;;;;;;;24.80;11.00;;;;;;;;;;6097432;23;20185;-91
2023/12/14 20:04:24;;;;;;;19.77;9.80;;;;;;;;;;6094929;23;20173;-90
2023/12/14 20:07:32;;;;;;;28.65;11.57;;;;;;;;;;6113743;23;20166;-90
2023/12/14 20:10:40;;;;;;;20.80;10.93;;;;;;;;;;6096780;23;20157;-91
2023/12/14 20:13:45;;;;;;;21.70;10.45;;;;;;;;;;6094586;23;20233;-93
2023/12/14 20:16:51;;;;;;;26.42;11.07;;;;;;;;;;6096947;23;20161;-92
2023/12/14 20:19:58;;;;;;;24.20;10.45;;;;;;;;;;6094604;23;20189;-91
2023/12/14 20:23:10;;;;;;;25.15;10.07;;;;;;;;;;6093724;23;20170;-91
2023/12/14 20:26:22;;;;;;;22.92;10.77;;;;;;;;;;6094929;23;20250;-91
2023/12/14 20:29:31;;;;;;;19.65;10.05;;;;;;;;;;6093853;23;20173;-91
2023/12/14 20:32:37;;;;;;;17.45;9.43;;;;;;;;;;6099971;23;20683;-91
2023/12/14 20:35:45;;;;;;;19.67;9.70;;;;;;;;;;6095314;23;20162;-90
2023/12/14 20:38:54;;;;;;;19.03;9.27;;;;;;;;;;6092428;23;20218;-88
2023/12/14 20:42:01;;;;;;;16.83;8.20;;;;;;;;;;6094123;23;20170;-89
2023/12/14 20:45:12;;;;;;;17.67;8.00;;;;;;;;;;6098100;23;20183;-90
2023/12/14 20:48:19;;;;;;;16.13;8.43;;;;;;;;;;6097682;23;20226;-91
2023/12/14 20:51:29;;;;;;;17.55;8.43;;;;;;;;;;6094866;23;20174;-92
2023/12/14 20:54:35;;;;;;;14.70;6.97;;;;;;;;;;6096307;23;20154;-92
2023/12/14 20:57:42;;;;;;;16.90;7.83;;;;;;;;;;6098405;23;20162;-90
2023/12/14 21:00:48;;;;;;;16.80;7.53;;;;;;;;;;6097458;23;20193;-91
2023/12/14 21:03:58;;;;;;;15.23;7.45;;;;;;;;;;6096222;23;20174;-94
2023/12/14 21:07:03;;;;;;;13.48;6.70;;;;;;;;;;6097291;23;20174;-91
2023/12/14 21:10:13;;;;;;;15.77;7.65;;;;;;;;;;6097476;23;20177;-91
2023/12/14 21:13:20;;;;;;;13.30;6.82;;;;;;;;;;6099208;23;20231;-92
2023/12/14 21:16:31;;;;;;;14.40;6.77;;;;;;;;;;6101106;23;20173;-91
2023/12/14 21:19:49;;;;;;;11.73;6.25;;;;;;;;;;6100098;23;20213;-94
2023/12/14 21:22:57;;;;;;;16.83;7.15;;;;;;;;;;6101997;23;20219;-90
2023/12/14 21:26:10;;;;;;;13.73;6.80;;;;;;;;;;6101484;23;20157;-91
2023/12/14 21:29:17;;;;;;;11.45;6.13;;;;;;;;;;6102180;23;20247;-92
2023/12/14 21:32:31;;;;;;;13.32;5.82;;;;;;;;;;6100611;23;20554;-89
2023/12/14 21:35:37;;;;;;;14.83;5.67;;;;;;;;;;6102875;23;20219;-94
2023/12/14 21:38:42;;;;;;;11.47;5.83;;;;;;;;;;6100749;23;20231;-90
2023/12/14 21:42:05;;;;;;;15.30;6.23;;;;;;;;;;6104800;23;20197;-90
2023/12/14 21:45:16;;;;;;;14.87;6.93;;;;;;;;;;6107319;23;20174;-90
2023/12/14 21:48:23;;;;;;;15.37;7.07;;;;;;;;;;6106372;23;20215;-90
2023/12/14 23:01:47;;;;;;;13.20;6.38;;;;;;;;;;6053803;23;20245;-92
2023/12/14 23:04:53;;;;;;;13.32;6.45;;;;;;;;;;6094156;23;20174;-93
2023/12/14 23:07:58;;;;;;;16.88;8.10;;;;;;;;;;6095956;23;20174;-89
2023/12/14 23:11:05;;;;;;;13.97;6.83;;;;;;;;;;6098385;23;20186;-90
2023/12/14 23:14:12;;;;;;;17.93;7.90;;;;;;;;;;6097071;23;20733;-87
2023/12/14 23:17:18;;;;;;;10.57;6.20;;;;;;;;;;6096298;23;20181;-92
2023/12/14 23:20:24;;;;;;;10.90;5.60;;;;;;;;;;6093626;23;20198;-88
2023/12/14 23:23:29;;;;;;;9.38;5.70;;;;;;;;;;6095030;23;20158;-91
2023/12/14 23:26:34;;;;;;;10.50;5.13;;;;;;;;;;6094936;23;20190;-90
2023/12/14 23:29:40;;;;;;;9.80;5.13;;;;;;;;;;6094557;23;20178;-91
2023/12/14 23:32:46;;;;;;;9.73;5.33;;;;;;;;;;6098948;23;20174;-91
2023/12/14 23:35:51;;;;;;;11.73;5.97;;;;;;;;;;6093854;23;20657;-93
2023/12/14 23:38:57;;;;;;;11.27;5.73;;;;;;;;;;6094484;23;20223;-88
2023/12/14 23:42:02;;;;;;;11.03;5.53;;;;;;;;;;6094947;23;20633;-91
2023/12/14 23:45:08;;;;;;;10.77;5.40;;;;;;;;;;6096308;23;20681;-88
2023/12/14 23:48:15;;;;;;;11.85;5.82;;;;;;;;;;6094829;23;20226;-89
2023/12/14 23:51:20;;;;;;;13.17;5.53;;;;;;;;;;6094891;23;20173;-92
2023/12/14 23:54:26;;;;;;;8.97;5.23;;;;;;;;;;6096567;23;20173;-90
2023/12/14 23:57:33;;;;;;;12.80;5.60;;;;;;;;;;6095102;23;20242;-91
